Date,TemperatureHighF,TemperatureAvgF,TemperatureLowF,DewpointHighF,DewpointAvgF,DewpointLowF,HumidityHigh,HumidityAvg,HumidityLow,PressureMaxIn,PressureMinIn,WindSpeedMaxMPH,WindSpeedAvgMPH,GustSpeedMaxMPH,PrecipitationSumIn
2013-1-1,54,54,54,29,29,29,37,37,37,30.00,30.00,0,0,0,0.00
2013-1-2,54,54,54,29,29,29,37,37,37,30.00,30.00,0,0,0,0.00
2013-1-3,54,54,54,29,29,29,37,37,37,30.00,30.00,0,0,0,0.00
2013-1-4,54,54,54,29,29,29,37,37,37,30.00,30.00,0,0,0,0.00
2013-1-5,54,54,54,29,29,29,37,37,37,30.00,30.00,0,0,0,0.00
2013-1-6,54,54,54,29,29,29,37,37,37,30.00,30.00,0,0,0,0.00
2013-1-7,54,54,54,29,29,29,37,37,37,30.00,30.00,0,0,0,0.00
2013-1-8,54,54,54,29,29,29,37,37,37,30.00,30.00,0,0,0,0.00
2013-1-9,54,54,54,29,29,29,37,37,37,30.00,30.00,0,0,0,0.00
2013-1-10,54,54,54,29,29,29,37,37,37,30.00,30.00,0,0,0,0.00
2013-1-11,54,54,54,29,29,29,37,37,37,30.00,30.00,0,0,0,0.00
2013-1-12,54,54,54,29,29,29,37,37,37,30.00,30.00,0,0,0,0.00
2013-1-13,54,34,26,53,26,25,96,79,37,30.00,29.83,0,0,0,0.00
2013-1-14,26,26,26,25,25,25,96,96,96,29.83,29.83,0,0,0,0.00
2013-1-15,61,41,26,25,23,19,96,54,25,30.18,29.83,6,1,6,0.00
2013-1-16,46,46,46,25,25,25,44,44,44,30.12,30.12,0,0,0,0.00
2013-1-17,46,45,42,36,27,25,72,50,44,30.12,29.85,0,0,0,0.00
2013-1-18,42,42,42,34,34,34,72,72,72,29.85,29.85,0,0,0,0.00
2013-1-19,42,42,42,34,34,34,72,72,72,29.85,29.85,0,0,0,0.00
2013-1-20,42,42,42,34,34,34,72,72,72,29.85,29.85,0,0,0,0.00
2013-1-21,42,42,42,34,34,34,72,72,72,29.85,29.85,0,0,0,0.00
2013-1-22,42,42,42,34,34,34,72,72,72,29.85,29.85,0,0,0,0.00
2013-1-23,42,42,42,34,34,34,72,72,72,29.85,29.85,0,0,0,0.00
2013-1-24,42,42,42,34,34,34,72,72,72,29.85,29.85,0,0,0,0.00
2013-1-25,42,42,42,34,34,34,72,72,72,29.85,29.85,0,0,0,0.00
2013-1-26,64,48,39,53,38,34,98,71,37,29.85,29.74,8,1,8,0.00
2013-1-27,60,45,36,46,36,25,98,74,29,29.91,29.71,8,1,8,0.00
2013-1-28,62,45,34,46,37,32,98,78,34,30.00,29.80,8,1,8,0.00
2013-1-29,61,45,35,48,38,33,98,80,37,30.06,29.94,8,1,8,0.00
2013-1-30,73,50,37,50,38,34,98,70,26,30.12,29.91,6,1,6,0.00
2013-1-31,73,49,34,46,38,34,98,72,27,30.03,29.85,5,1,5,0.00
2013-2-1,72,51,36,47,41,35,98,74,32,29.97,29.83,6,1,6,0.00
2013-2-2,61,51,44,50,47,42,98,86,60,30.00,29.88,5,1,5,0.00
2013-2-3,49,49,49,46,46,46,90,90,90,29.94,29.94,0,0,0,0.00
2013-2-4,49,49,49,46,46,46,90,90,90,29.94,29.94,0,0,0,0.00
2013-2-5,49,49,49,46,46,46,90,90,90,29.94,29.94,0,0,0,0.00
2013-2-6,49,49,49,46,46,46,90,90,90,29.94,29.94,0,0,0,0.00
2013-2-7,49,49,49,46,46,46,90,90,90,29.94,29.94,0,0,0,0.00
2013-2-8,49,49,49,46,46,46,90,90,90,29.94,29.94,0,0,0,0.00
2013-2-9,49,49,49,46,46,46,90,90,90,29.94,29.94,0,0,0,0.00
2013-2-10,49,48,38,46,45,34,90,89,74,29.94,29.74,0,0,0,0.00
2013-2-11,69,47,32,41,30,23,98,60,22,29.97,29.71,8,1,8,0.00
2013-2-12,68,48,35,42,33,28,89,62,25,30.15,29.88,6,1,6,0.00
2013-2-13,71,49,35,44,37,32,98,70,26,30.09,29.91,9,1,10,0.00
2013-2-14,75,52,36,45,38,34,98,64,24,30.03,29.85,9,1,9,0.00
2013-2-15,79,55,38,42,38,35,94,60,22,30.09,29.85,6,1,6,0.00
2013-2-16,63,55,40,48,44,38,95,69,51,29.94,29.85,3,0,3,0.00
2013-2-17,63,63,63,48,48,48,58,58,58,29.94,29.94,0,0,0,0.00
2013-2-18,63,63,63,48,48,48,58,58,58,29.94,29.94,0,0,0,0.00
2013-2-19,63,63,63,48,48,48,58,58,58,29.94,29.94,0,0,0,0.00
2013-2-20,63,63,63,48,48,48,58,58,58,29.94,29.94,0,0,0,0.00
2013-2-21,63,63,63,48,48,48,58,58,58,29.94,29.94,0,0,0,0.00
2013-2-22,63,63,63,48,48,48,58,58,58,29.94,29.94,0,0,0,0.00
2013-2-23,63,63,63,48,48,48,58,58,58,29.94,29.94,0,0,0,0.00
2013-2-28,63,63,63,48,48,48,58,58,58,29.94,29.94,0,0,0,0.00
2013-3-1,63,63,63,48,48,48,58,58,58,29.94,29.94,0,0,0,0.00
2013-3-2,63,63,63,48,48,48,58,58,58,29.94,29.94,0,0,0,0.00
2013-3-3,63,63,63,48,48,48,58,58,58,29.94,29.94,0,0,0,0.00